This is the latest recevied weather packets stored in our database for station/object PY3MO-11. If no packets are shown the sender has not sent any weather packets the latest 10 day(s).
| Time | Temp. | Humidity | Pressure | Rain* | Wind** | Luminosity | Snow |
|---|---|---|---|---|---|---|---|
| 1777898040 | 16.67° C | 71% | 1018.5 hPa | 0 mm | - | - | - |
| 1777897743 | 16.67° C | 72% | 1018.4 hPa | 0 mm | - | - | - |
| 1777897442 | 16.67° C | 72% | 1018.6 hPa | 0 mm | - | - | - |
| 1777897142 | 16.11° C | 73% | 1018.5 hPa | 0 mm | - | - | - |
| 1777896842 | 15.56° C | 73% | 1018.6 hPa | 0 mm | - | - | - |
| 1777896542 | 15.56° C | 74% | 1018.3 hPa | 0 mm | - | - | - |
| 1777896241 | 15° C | 74% | 1018.4 hPa | 0 mm | - | - | - |
| 1777895941 | 15° C | 74% | 1018.4 hPa | 0 mm | - | - | - |
| 1777895641 | 15° C | 75% | 1018.3 hPa | 0 mm | - | - | - |
| 1777895341 | 14.44° C | 76% | 1018.2 hPa | 0 mm | - | - | - |
| 1777895041 | 14.44° C | 79% | 1018.2 hPa | 0 mm | - | - | - |
| 1777894742 | 13.89° C | 81% | 1018.1 hPa | 0 mm | - | - | - |
| 1777894442 | 12.78° C | 83% | 1018.2 hPa | 0 mm | - | - | - |
| 1777894141 | 12.22° C | 87% | 1018.2 hPa | 0 mm | - | - | - |
| 1777893841 | 11.67° C | 87% | 1018.1 hPa | 0 mm | - | - | - |
| 1777893541 | 11.67° C | 88% | 1017.9 hPa | 0 mm | - | - | - |
| 1777893241 | 11.67° C | 89% | 1018 hPa | 0 mm | - | - | - |
| 1777892941 | 11.11° C | 90% | 1018.2 hPa | 0 mm | - | - | - |
| 1777892342 | 10.56° C | 91% | 1018 hPa | 0 mm | - | - | - |
| 1777892042 | 10.56° C | 91% | 1018 hPa | 0 mm | - | - | - |
| 1777891742 | 10.56° C | 91% | 1017.8 hPa | 0 mm | - | - | - |
| 1777861441 | 9.44° C | 80% | 1019.2 hPa | 0 mm | - | - | - |
| 1777861141 | 9.44° C | 80% | 1019.3 hPa | 0 mm | - | - | - |
| 1777860841 | 9.44° C | 80% | 1019.2 hPa | 0 mm | - | - | - |
| 1777860543 | 8.89° C | 79% | 1019.2 hPa | 0 mm | - | - | - |
* Rain latest hour (hover to see other rain measurements)
** Current wind speed in m/s (hover to see current wind gust speed)